Time;durP1;ratioP1;P1;durP2;ratioP2;P2;SDS_P1;SDS_P2;PMS_P1;PMS_P2;Temp;Humidity;BMP_temperature;BMP_pressure;BME280_temperature;BME280_humidity;BME280_pressure;Samples;Min_cycle;Max_cycle;Signal;HPM_P1;HPM_P2
2021/12/30 00:01:05;;;;;;;;;48.00;42.00;;;;;20.72;49.03;100209.20;108995;1277;20033;-79
2021/12/30 00:03:31;;;;;;;;;53.00;44.00;;;;;20.72;49.05;100203.58;109151;1276;20852;-79
2021/12/30 00:05:58;;;;;;;;;46.33;42.00;;;;;20.73;48.92;100204.19;109093;1276;19452;-80
2021/12/30 00:08:24;;;;;;;;;57.00;45.50;;;;;20.71;48.95;100197.04;109073;1277;20301;-80
2021/12/30 00:10:50;;;;;;;;;47.00;41.50;;;;;20.74;48.82;100204.08;109100;1277;23528;-79
2021/12/30 00:13:15;;;;;;;;;48.00;43.00;;;;;20.74;48.86;100200.46;109109;1277;20629;-79
2021/12/30 00:15:42;;;;;;;;;51.67;44.00;;;;;20.74;48.92;100197.37;109069;1278;23901;-78
2021/12/30 00:18:08;;;;;;;;;46.50;40.50;;;;;20.74;48.87;100197.79;109090;1276;20216;-78
2021/12/30 00:20:34;;;;;;;;;54.50;44.00;;;;;20.73;48.99;100200.74;108815;1272;644471;-78
2021/12/30 00:23:02;;;;;;;;;50.00;41.00;;;;;20.74;48.89;100203.56;109050;1277;22409;-78
2021/12/30 00:25:28;;;;;;;;;43.50;40.00;;;;;20.73;48.70;100201.46;109122;1277;21659;-77
2021/12/30 00:27:54;;;;;;;;;50.00;42.50;;;;;20.73;48.66;100196.69;109129;1277;20118;-78
2021/12/30 00:30:20;;;;;;;;;56.00;43.00;;;;;20.74;48.81;100195.89;109094;1277;19995;-78
2021/12/30 00:32:46;;;;;;;;;58.67;45.67;;;;;20.71;48.73;100197.08;109093;1277;21117;-78
2021/12/30 00:35:12;;;;;;;;;50.00;42.00;;;;;20.73;48.71;100204.40;109089;1277;19253;-78
2021/12/30 00:37:38;;;;;;;;;48.00;42.50;;;;;20.73;48.70;100206.70;109093;1276;22783;-78
2021/12/30 00:40:04;;;;;;;;;53.00;43.00;;;;;20.71;48.58;100204.11;109095;1277;23927;-79
2021/12/30 00:42:31;;;;;;;;;46.00;40.00;;;;;20.72;48.62;100211.73;109040;1277;19496;-78
2021/12/30 00:44:57;;;;;;;;;42.50;37.00;;;;;20.73;48.70;100214.24;109048;1278;20194;-78
2021/12/30 00:47:23;;;;;;;;;49.00;42.00;;;;;20.73;48.64;100219.31;109049;1276;22209;-76
2021/12/30 00:49:51;;;;;;;;;52.50;43.00;;;;;20.72;48.73;100221.40;109083;1276;23129;-78
2021/12/30 00:52:17;;;;;;;;;57.67;43.00;;;;;20.72;48.66;100222.91;109103;1278;19736;-78
2021/12/30 00:54:43;;;;;;;;;50.00;42.00;;;;;20.71;48.74;100220.80;109121;1276;20141;-79
2021/12/30 00:57:09;;;;;;;;;53.00;40.50;;;;;20.71;48.67;100217.54;109131;1277;19308;-79
2021/12/30 00:59:35;;;;;;;;;53.00;44.00;;;;;20.71;48.61;100218.33;109128;1276;22245;-78
2021/12/30 01:02:01;;;;;;;;;47.00;41.00;;;;;20.69;48.69;100219.01;109189;1277;21542;-79
2021/12/30 01:04:27;;;;;;;;;45.50;40.00;;;;;20.69;48.70;100215.23;109134;1278;19523;-80
2021/12/30 01:06:53;;;;;;;;;51.50;43.00;;;;;20.69;48.66;100208.56;109145;1276;19486;-78
2021/12/30 01:09:19;;;;;;;;;48.00;42.50;;;;;20.69;48.62;100217.74;109060;1277;21675;-78
2021/12/30 01:11:45;;;;;;;;;45.00;40.50;;;;;20.70;48.68;100216.80;109137;1277;19200;-81
2021/12/30 01:14:14;;;;;;;;;54.50;43.50;;;;;20.69;48.52;100212.30;109148;1277;19380;-79
2021/12/30 01:16:42;;;;;;;;;46.67;40.67;;;;;20.69;48.62;100218.51;109099;1277;20387;-79
2021/12/30 01:19:22;;;;;;;;;48.00;40.67;;;;;20.69;48.53;100219.20;109101;1276;19569;-79
2021/12/30 01:21:48;;;;;;;;;50.00;43.50;;;;;20.68;48.43;100219.20;109088;1276;20269;-79
2021/12/30 01:24:14;;;;;;;;;43.00;40.00;;;;;20.70;48.36;100226.02;109108;1277;20133;-80
2021/12/30 01:26:40;;;;;;;;;42.50;36.00;;;;;20.69;48.54;100228.82;109130;1278;22383;-78
2021/12/30 01:29:06;;;;;;;;;54.50;42.00;;;;;20.69;48.50;100233.88;109092;1275;21512;-79
2021/12/30 01:31:32;;;;;;;;;50.00;43.50;;;;;20.70;48.34;100232.96;109091;1276;20203;-79
2021/12/30 01:33:58;;;;;;;;;46.00;40.00;;;;;20.69;48.51;100231.77;109111;1277;23129;-79
2021/12/30 01:36:26;;;;;;;;;42.50;39.00;;;;;20.68;48.39;100231.02;109076;1276;19561;-79
2021/12/30 01:38:52;;;;;;;;;46.33;39.67;;;;;20.68;48.19;100234.37;109083;1276;20368;-79
2021/12/30 01:41:18;;;;;;;;;51.00;42.00;;;;;20.68;48.40;100235.70;109127;1277;19386;-79
2021/12/30 01:43:45;;;;;;;;;46.50;39.00;;;;;20.68;48.35;100239.17;109114;1278;23448;-78
2021/12/30 01:46:11;;;;;;;;;48.00;40.00;;;;;20.67;48.41;100239.46;109067;1277;21973;-78
2021/12/30 01:48:37;;;;;;;;;53.50;42.00;;;;;20.67;48.41;100237.08;109074;1277;19233;-77
2021/12/30 01:51:03;;;;;;;;;49.00;42.00;;;;;20.68;48.31;100235.95;109268;1277;19907;-77
2021/12/30 01:53:29;;;;;;;;;45.50;42.50;;;;;20.67;48.23;100231.46;109232;1277;23341;-77
2021/12/30 01:55:55;;;;;;;;;43.50;39.50;;;;;20.67;48.45;100230.41;109077;1278;20193;-78
2021/12/30 01:58:21;;;;;;;;;44.33;40.00;;;;;20.67;48.30;100227.15;109031;1276;24077;-78
2021/12/30 02:00:47;;;;;;;;;47.00;40.00;;;;;20.67;48.14;100234.02;109052;1277;20331;-78
2021/12/30 02:03:13;;;;;;;;;45.00;40.00;;;;;20.66;48.14;100229.02;109087;1277;24506;-78
2021/12/30 02:05:39;;;;;;;;;50.50;39.50;;;;;20.66;48.19;100228.19;109015;1277;20085;-78
2021/12/30 02:08:05;;;;;;;;;48.50;40.50;;;;;20.68;48.17;100224.85;109103;1278;21081;-79
2021/12/30 02:10:31;;;;;;;;;50.50;42.50;;;;;20.67;48.29;100229.32;109103;1276;20071;-77
2021/12/30 02:12:57;;;;;;;;;42.50;39.00;;;;;20.67;48.17;100232.42;109066;1276;19561;-79
2021/12/30 02:15:23;;;;;;;;;53.00;40.00;;;;;20.67;48.11;100235.95;109029;1278;20126;-76
2021/12/30 02:17:51;;;;;;;;;49.50;43.00;;;;;20.66;47.92;100227.73;109056;1277;22892;-78
2021/12/30 02:20:17;;;;;;;;;51.33;40.00;;;;;20.67;48.04;100221.29;109059;1276;20568;-78
2021/12/30 02:22:43;;;;;;;;;48.00;42.50;;;;;20.66;47.96;100226.17;109043;1276;22296;-80
2021/12/30 02:25:09;;;;;;;;;46.00;40.50;;;;;20.66;48.15;100219.27;109065;1278;19451;-78
2021/12/30 02:27:35;;;;;;;;;46.00;40.00;;;;;20.66;48.04;100232.27;109041;1278;20900;-78
2021/12/30 02:30:00;;;;;;;;;43.50;38.50;;;;;20.66;48.01;100235.73;109038;1277;23172;-78
2021/12/30 02:32:26;;;;;;;;;48.00;40.00;;;;;20.65;48.14;100236.19;109043;1278;19272;-78
2021/12/30 02:34:52;;;;;;;;;45.00;39.50;;;;;20.66;48.07;100234.52;109075;1276;19372;-78
2021/12/30 02:37:18;;;;;;;;;45.00;39.33;;;;;20.65;47.89;100241.17;109107;1276;20333;-78
2021/12/30 02:39:49;;;;;;;;;46.67;40.00;;;;;20.65;48.04;100250.22;109042;1276;19440;-78
2021/12/30 02:42:15;;;;;;;;;49.33;40.00;;;;;20.65;48.03;100250.63;109040;1276;20045;-78
2021/12/30 02:44:41;;;;;;;;;47.50;40.00;;;;;20.65;48.05;100256.96;109016;1276;20266;-78
2021/12/30 02:47:07;;;;;;;;;45.00;42.00;;;;;20.65;48.12;100256.28;109071;1278;19161;-78
2021/12/30 02:49:33;;;;;;;;;47.00;42.00;;;;;20.64;48.04;100259.65;109035;1275;24042;-77
2021/12/30 02:51:59;;;;;;;;;47.00;39.00;;;;;20.64;47.95;100261.27;109055;1276;21904;-78
2021/12/30 02:54:25;;;;;;;;;48.50;39.00;;;;;20.62;47.92;100262.94;109083;1276;19289;-78
2021/12/30 02:56:51;;;;;;;;;40.00;38.00;;;;;20.63;47.95;100269.66;109081;1276;22370;-78
2021/12/30 02:59:18;;;;;;;;;45.00;39.00;;;;;20.63;48.03;100275.31;109088;1277;23063;-78
2021/12/30 03:01:44;;;;;;;;;45.33;39.33;;;;;20.64;47.81;100276.71;109099;1276;19254;-78
2021/12/30 03:04:12;;;;;;;;;42.00;39.50;;;;;20.62;47.96;100274.61;109127;1276;19439;-79
2021/12/30 03:06:38;;;;;;;;;45.00;39.67;;;;;20.62;47.99;100274.55;109072;1276;21021;-78
2021/12/30 03:09:04;;;;;;;;;44.00;39.00;;;;;20.63;47.99;100274.42;109123;1277;19249;-78
2021/12/30 03:11:30;;;;;;;;;46.50;39.50;;;;;20.62;47.93;100269.81;109064;1277;23437;-77
2021/12/30 03:13:56;;;;;;;;;44.00;40.00;;;;;20.62;47.82;100267.30;109062;1278;21646;-78
2021/12/30 03:16:22;;;;;;;;;48.50;42.00;;;;;20.62;47.76;100269.30;109111;1276;23820;-78
2021/12/30 03:18:48;;;;;;;;;40.50;39.50;;;;;20.62;47.77;100263.81;109097;1277;19595;-79
2021/12/30 03:21:14;;;;;;;;;44.50;39.00;;;;;20.62;47.64;100266.54;109050;1276;20595;-79
2021/12/30 03:23:40;;;;;;;;;40.33;38.00;;;;;20.62;47.88;100269.51;109028;1278;19600;-78
2021/12/30 03:26:06;;;;;;;;;43.00;39.00;;;;;20.62;47.75;100267.34;109063;1276;22858;-79
2021/12/30 03:28:32;;;;;;;;;38.67;35.00;;;;;20.62;47.68;100264.40;109027;1277;22053;-79
2021/12/30 03:30:59;;;;;;;;;45.50;38.50;;;;;20.61;47.89;100265.98;109052;1276;19284;-78
2021/12/30 03:33:25;;;;;;;;;48.33;41.33;;;;;20.60;47.86;100264.05;109054;1276;21197;-76
2021/12/30 03:35:51;;;;;;;;;42.50;37.00;;;;;20.61;47.85;100272.11;109098;1276;20270;-77
2021/12/30 03:38:16;;;;;;;;;46.00;40.00;;;;;20.61;47.63;100264.18;109064;1278;19310;-78
2021/12/30 03:40:42;;;;;;;;;42.00;35.00;;;;;20.60;47.79;100258.77;109131;1276;23090;-79
2021/12/30 03:43:08;;;;;;;;;38.00;35.00;;;;;20.60;47.77;100264.30;109057;1276;21779;-78
2021/12/30 03:45:34;;;;;;;;;42.00;34.50;;;;;20.61;47.82;100263.88;109068;1278;20227;-78
2021/12/30 03:48:00;;;;;;;;;35.00;31.50;;;;;20.59;47.69;100265.58;109045;1276;20063;-77
2021/12/30 03:50:27;;;;;;;;;37.50;34.50;;;;;20.58;47.78;100269.55;109077;1276;20388;-77
2021/12/30 03:52:53;;;;;;;;;45.00;38.50;;;;;20.59;47.75;100271.36;109115;1277;19451;-78
2021/12/30 03:55:19;;;;;;;;;41.50;38.50;;;;;20.58;47.71;100272.16;109123;1277;20050;-79
2021/12/30 03:57:45;;;;;;;;;43.50;36.00;;;;;20.58;47.73;100273.41;109132;1278;21612;-78
2021/12/30 04:00:11;;;;;;;;;41.00;36.50;;;;;20.59;47.74;100274.30;109091;1276;19255;-78
2021/12/30 04:02:37;;;;;;;;;40.00;36.00;;;;;20.59;47.58;100280.45;109097;1277;19542;-78
2021/12/30 04:05:03;;;;;;;;;45.50;38.50;;;;;20.59;47.61;100285.23;109108;1276;20071;-77
2021/12/30 04:07:29;;;;;;;;;42.00;38.50;;;;;20.59;47.54;100287.95;109053;1278;19563;-73
2021/12/30 04:09:55;;;;;;;;;40.00;34.50;;;;;20.60;47.49;100293.74;109098;1277;24462;-77
2021/12/30 04:12:21;;;;;;;;;43.00;36.50;;;;;20.61;47.64;100303.43;109110;1277;20337;-76
2021/12/30 04:14:47;;;;;;;;;38.50;35.50;;;;;20.60;47.38;100310.92;109100;1277;19372;-79
2021/12/30 04:17:13;;;;;;;;;35.50;32.00;;;;;20.60;47.50;100307.45;109063;1277;23403;-77
2021/12/30 04:19:39;;;;;;;;;36.50;34.50;;;;;20.61;47.53;100301.59;109037;1276;21921;-80
2021/12/30 04:22:05;;;;;;;;;42.67;39.33;;;;;20.61;47.46;100302.89;109066;1277;19598;-78
2021/12/30 04:24:31;;;;;;;;;45.00;38.00;;;;;20.60;47.43;100302.01;109117;1276;22761;-78
2021/12/30 04:26:57;;;;;;;;;42.50;37.00;;;;;20.61;47.58;100298.36;109126;1276;21589;-77
2021/12/30 04:29:23;;;;;;;;;45.50;37.00;;;;;20.60;47.36;100294.21;109118;1276;19478;-77
2021/12/30 04:31:49;;;;;;;;;48.00;38.00;;;;;20.60;47.53;100288.63;109149;1276;23446;-79
2021/12/30 04:34:15;;;;;;;;;42.50;38.00;;;;;20.60;47.44;100287.75;109046;1276;21575;-80
2021/12/30 04:36:41;;;;;;;;;45.50;35.00;;;;;20.60;47.27;100289.94;109091;1277;19319;-79
2021/12/30 04:39:07;;;;;;;;;43.67;37.00;;;;;20.59;47.43;100294.58;109130;1276;19751;-80
2021/12/30 04:41:33;;;;;;;;;41.00;37.50;;;;;20.59;47.38;100303.62;109123;1277;20170;-78
2021/12/30 04:43:59;;;;;;;;;41.00;38.33;;;;;20.58;47.38;100304.83;109054;1278;19576;-80
2021/12/30 04:46:25;;;;;;;;;37.50;34.50;;;;;20.57;47.41;100311.47;109094;1277;19524;-79
2021/12/30 04:48:51;;;;;;;;;41.00;36.00;;;;;20.58;47.32;100311.39;109088;1276;21671;-79
2021/12/30 04:51:17;;;;;;;;;35.50;33.50;;;;;20.58;47.48;100313.40;109103;1277;19183;-79
2021/12/30 04:53:43;;;;;;;;;38.00;35.00;;;;;20.58;47.53;100307.60;109082;1278;24238;-78
2021/12/30 04:56:09;;;;;;;;;38.50;34.50;;;;;20.56;47.49;100297.64;109138;1276;20108;-76
2021/12/30 04:58:34;;;;;;;;;37.50;31.50;;;;;20.55;47.27;100314.77;109156;1277;19209;-77
2021/12/30 05:01:00;;;;;;;;;37.50;32.50;;;;;20.56;47.38;100319.27;109077;1277;19595;-77
2021/12/30 05:03:26;;;;;;;;;39.00;37.00;;;;;20.57;47.41;100323.16;109043;1277;22831;-77
2021/12/30 05:05:52;;;;;;;;;39.00;35.00;;;;;20.56;47.36;100329.61;109020;1277;19370;-77
2021/12/30 05:08:18;;;;;;;;;45.50;34.50;;;;;20.56;47.37;100334.06;109027;1277;19532;-77
2021/12/30 05:10:44;;;;;;;;;41.00;36.00;;;;;20.56;47.42;100340.42;109055;1277;24038;-77
2021/12/30 05:13:10;;;;;;;;;39.00;34.00;;;;;20.53;47.19;100336.23;109072;1278;20852;-77
2021/12/30 05:15:36;;;;;;;;;38.00;34.50;;;;;20.56;47.35;100338.86;109017;1277;19790;-76
2021/12/30 05:18:02;;;;;;;;;35.00;30.00;;;;;20.55;47.34;100351.60;109078;1277;20048;-76
2021/12/30 05:20:28;;;;;;;;;46.50;36.50;;;;;20.54;47.37;100353.31;109084;1277;19152;-76
2021/12/30 05:22:54;;;;;;;;;40.50;34.50;;;;;20.54;47.36;100354.81;109082;1276;19429;-77
2021/12/30 05:25:20;;;;;;;;;43.00;37.50;;;;;20.54;47.36;100350.13;109053;1277;21941;-76
2021/12/30 05:27:46;;;;;;;;;42.00;35.00;;;;;20.53;47.50;100341.30;109132;1276;19351;-77
2021/12/30 05:30:12;;;;;;;;;39.50;36.50;;;;;20.53;47.35;100336.75;109052;1278;20811;-76
2021/12/30 05:32:38;;;;;;;;;41.50;31.50;;;;;20.54;47.40;100338.14;109038;1275;20141;-77
2021/12/30 05:35:04;;;;;;;;;40.00;34.50;;;;;20.53;47.23;100337.67;109121;1277;23932;-77
2021/12/30 05:37:30;;;;;;;;;36.00;34.50;;;;;20.53;47.26;100337.88;109073;1277;20890;-74
2021/12/30 05:39:55;;;;;;;;;36.00;32.00;;;;;20.52;47.22;100347.02;109081;1277;20328;-78
2021/12/30 05:42:23;;;;;;;;;34.50;31.50;;;;;20.52;47.35;100341.48;109218;1277;21373;-78
2021/12/30 05:44:49;;;;;;;;;37.00;33.33;;;;;20.52;47.37;100344.43;109085;1277;19898;-78
2021/12/30 05:47:15;;;;;;;;;37.00;35.00;;;;;20.52;47.25;100343.27;109079;1278;23238;-77
2021/12/30 05:49:41;;;;;;;;;39.00;35.00;;;;;20.52;47.18;100339.83;109048;1277;24226;-77
2021/12/30 05:52:07;;;;;;;;;38.00;32.00;;;;;20.54;47.10;100334.36;109085;1278;19561;-78
2021/12/30 05:54:33;;;;;;;;;41.50;34.50;;;;;20.53;47.10;100332.56;109103;1278;20096;-77
2021/12/30 05:56:59;;;;;;;;;38.00;34.00;;;;;20.53;47.09;100342.95;109043;1277;22846;-78
2021/12/30 05:59:25;;;;;;;;;38.00;34.00;;;;;20.52;47.16;100337.41;109078;1276;19497;-76
2021/12/30 06:01:51;;;;;;;;;40.00;35.00;;;;;20.52;47.32;100347.28;109065;1276;21145;-77
2021/12/30 06:04:17;;;;;;;;;33.00;29.00;;;;;20.52;47.11;100353.44;109026;1277;23132;-77
2021/12/30 06:06:43;;;;;;;;;40.00;32.00;;;;;20.53;47.14;100352.45;109060;1277;24052;-78
2021/12/30 06:09:09;;;;;;;;;33.50;30.50;;;;;20.53;47.11;100350.65;109046;1276;21571;-78
2021/12/30 06:11:35;;;;;;;;;39.00;33.00;;;;;20.52;47.00;100349.09;109070;1275;19157;-77
2021/12/30 06:14:00;;;;;;;;;38.00;31.00;;;;;20.52;47.09;100346.40;109111;1277;23094;-77
2021/12/30 06:16:26;;;;;;;;;36.00;30.00;;;;;20.52;47.00;100346.90;109079;1278;23889;-77
2021/12/30 06:18:52;;;;;;;;;38.00;33.50;;;;;20.52;47.21;100355.45;109050;1277;20849;-78
2021/12/30 06:21:18;;;;;;;;;35.00;30.00;;;;;20.51;46.94;100352.96;109069;1277;20075;-78
2021/12/30 06:23:44;;;;;;;;;38.50;34.50;;;;;20.51;46.85;100355.85;109056;1275;20105;-78
2021/12/30 06:26:10;;;;;;;;;35.50;31.00;;;;;20.51;46.84;100363.33;109047;1276;22040;-78
2021/12/30 06:28:36;;;;;;;;;35.50;31.00;;;;;20.51;46.93;100362.39;109092;1277;19792;-78
2021/12/30 06:31:02;;;;;;;;;35.00;31.00;;;;;20.50;46.70;100360.05;109097;1276;20772;-78
2021/12/30 06:33:28;;;;;;;;;31.00;30.00;;;;;20.53;46.83;100367.86;109073;1276;24291;-78
2021/12/30 06:35:54;;;;;;;;;36.50;32.00;;;;;20.52;46.95;100358.02;109085;1276;20125;-78
2021/12/30 06:38:20;;;;;;;;;36.00;32.00;;;;;20.52;46.71;100350.92;109141;1277;21001;-78
2021/12/30 06:40:46;;;;;;;;;35.50;31.00;;;;;20.52;46.95;100351.27;109070;1277;19240;-76
2021/12/30 06:43:12;;;;;;;;;35.00;32.00;;;;;20.51;46.80;100351.50;109057;1275;20180;-77
2021/12/30 06:45:38;;;;;;;;;34.50;30.50;;;;;20.55;47.01;100344.60;109053;1277;20291;-76
2021/12/30 06:48:06;;;;;;;;;33.50;29.50;;;;;20.62;46.63;100339.90;109021;1277;23863;-76
2021/12/30 06:50:33;;;;;;;;;32.00;30.50;;;;;20.70;46.87;100343.33;109019;1276;19854;-76
2021/12/30 06:52:59;;;;;;;;;32.33;25.00;;;;;20.75;47.13;100341.77;109076;1276;21129;-75
2021/12/30 06:55:25;;;;;;;;;28.50;27.00;;;;;20.78;47.59;100339.89;109087;1276;23647;-73
2021/12/30 06:57:51;;;;;;;;;31.00;28.00;;;;;20.83;47.98;100344.41;109029;1277;20833;-75
2021/12/30 07:00:17;;;;;;;;;30.50;27.50;;;;;20.82;48.35;100340.76;109030;1278;20037;-76
2021/12/30 07:02:43;;;;;;;;;31.00;28.00;;;;;20.84;48.79;100340.10;109046;1277;19885;-76
2021/12/30 07:05:09;;;;;;;;;30.00;26.50;;;;;20.82;48.99;100338.94;109077;1277;21467;-76
2021/12/30 07:07:35;;;;;;;;;39.00;32.00;;;;;20.80;48.81;100340.05;109005;1276;20077;-76
2021/12/30 07:10:01;;;;;;;;;32.33;27.67;;;;;20.82;48.88;100340.92;109053;1277;19387;-77
2021/12/30 07:12:27;;;;;;;;;29.00;24.50;;;;;20.84;48.73;100346.69;109029;1276;21931;-76
2021/12/30 07:14:53;;;;;;;;;29.00;25.00;;;;;20.86;48.96;100352.55;109035;1278;21678;-76
2021/12/30 07:17:19;;;;;;;;;33.00;28.67;;;;;20.89;49.39;100352.71;109070;1275;21068;-78
2021/12/30 07:19:45;;;;;;;;;31.00;27.00;;;;;20.92;49.55;100352.01;109048;1278;21385;-76
2021/12/30 07:22:11;;;;;;;;;32.00;27.67;;;;;20.94;49.94;100359.75;109015;1276;23039;-76
2021/12/30 07:24:37;;;;;;;;;31.00;26.50;;;;;20.92;50.16;100356.92;109065;1276;19342;-75
2021/12/30 07:27:04;;;;;;;;;38.00;29.33;;;;;20.95;49.96;100360.56;109060;1276;19644;-77
2021/12/30 07:29:30;;;;;;;;;39.50;38.50;;;;;20.96;49.98;100368.23;109106;1278;23303;-74
2021/12/30 07:31:57;;;;;;;;;48.00;41.33;;;;;20.97;49.88;100367.79;109147;1277;22193;-76
2021/12/30 07:34:23;;;;;;;;;62.00;48.67;;;;;20.94;49.68;100369.77;109033;1276;21194;-76
2021/12/30 07:36:49;;;;;;;;;67.67;52.00;;;;;20.91;50.13;100370.09;109081;1278;20347;-77
2021/12/30 07:39:15;;;;;;;;;71.67;55.33;;;;;20.89;49.80;100379.11;109047;1277;19210;-77
2021/12/30 07:41:41;;;;;;;;;77.67;58.00;;;;;20.90;49.97;100381.39;109070;1278;25027;-77
2021/12/30 07:44:09;;;;;;;;;81.67;61.67;;;;;20.93;50.00;100386.05;109065;1276;20077;-77
2021/12/30 07:46:35;;;;;;;;;91.00;66.50;;;;;20.94;49.90;100388.75;109029;1278;19501;-77
2021/12/30 07:49:01;;;;;;;;;112.67;85.00;;;;;20.96;50.07;100396.82;109074;1277;21916;-75
2021/12/30 07:51:27;;;;;;;;;100.00;71.00;;;;;20.96;49.96;100403.61;109014;1278;20662;-75
2021/12/30 07:53:53;;;;;;;;;105.00;83.33;;;;;20.95;49.40;100410.55;109049;1278;23776;-76
2021/12/30 07:56:19;;;;;;;;;101.67;80.67;;;;;20.91;49.51;100417.58;109039;1276;19628;-76
2021/12/30 07:58:45;;;;;;;;;101.00;78.00;;;;;20.87;50.20;100410.39;109034;1276;20722;-76
2021/12/30 08:01:10;;;;;;;;;100.67;71.33;;;;;20.86;50.12;100408.95;109013;1276;23403;-76
2021/12/30 08:03:36;;;;;;;;;96.33;71.00;;;;;20.88;50.15;100405.05;109025;1277;24695;-77
2021/12/30 08:06:02;;;;;;;;;94.33;68.67;;;;;20.92;50.03;100402.41;109072;1275;20752;-76
2021/12/30 08:08:28;;;;;;;;;93.33;68.67;;;;;20.94;50.03;100401.20;108935;1276;19128;-76
2021/12/30 08:10:54;;;;;;;;;85.67;62.00;;;;;20.96;49.94;100397.28;108977;1277;19338;-76
2021/12/30 08:13:20;;;;;;;;;86.33;65.33;;;;;20.96;49.59;100394.29;109055;1276;22294;-75
2021/12/30 08:15:47;;;;;;;;;84.00;61.33;;;;;20.99;49.41;100405.29;108933;1278;19498;-76
2021/12/30 08:18:13;;;;;;;;;78.67;60.00;;;;;20.99;49.72;100407.89;108621;1278;20535;-75
2021/12/30 08:20:38;;;;;;;;;83.00;58.00;;;;;21.00;49.70;100412.34;108458;1273;99993;-74
2021/12/30 08:23:05;;;;;;;;;79.33;59.33;;;;;20.99;50.01;100405.98;108657;1278;19438;-75
2021/12/30 08:25:31;;;;;;;;;83.00;60.00;;;;;20.97;50.35;100403.23;109076;1277;22872;-71
2021/12/30 08:27:57;;;;;;;;;80.00;58.00;;;;;20.94;50.35;100401.00;109041;1276;24140;-76
2021/12/30 08:30:23;;;;;;;;;69.67;51.67;;;;;20.93;50.43;100393.72;109014;1277;19484;-74
2021/12/30 08:32:49;;;;;;;;;71.00;55.33;;;;;20.96;49.99;100393.92;109061;1277;19724;-76
2021/12/30 08:35:15;;;;;;;;;75.67;57.00;;;;;20.97;50.36;100384.44;109083;1276;20355;-76
2021/12/30 08:37:41;;;;;;;;;77.33;54.67;;;;;20.98;50.30;100382.27;109072;1277;23116;-75
2021/12/30 08:40:45;;;;;;;;;68.00;52.67;;;;;21.04;50.30;100394.52;104810;1326;17377;-74
2021/12/30 08:43:13;;;;;;;;;63.33;50.00;;;;;20.99;50.49;100388.20;105680;1313;20047;-76
2021/12/30 08:45:40;;;;;;;;;68.33;51.00;;;;;21.03;50.24;100388.66;105704;1307;22143;-78
2021/12/30 08:48:07;;;;;;;;;64.67;50.33;;;;;21.02;49.95;100384.96;105686;1314;18568;-75
2021/12/30 08:50:35;;;;;;;;;72.00;55.67;;;;;20.95;49.82;100380.52;105645;1309;18765;-76
2021/12/30 08:53:02;;;;;;;;;63.33;47.00;;;;;20.95;49.99;100380.18;105725;1309;20230;-77
2021/12/30 08:55:29;;;;;;;;;69.50;51.50;;;;;20.97;50.08;100383.05;105616;1309;18659;-76
2021/12/30 08:57:57;;;;;;;;;89.67;66.00;;;;;21.02;50.36;100384.55;105667;1308;20788;-76
2021/12/30 09:00:24;;;;;;;;;171.50;120.50;;;;;21.04;50.31;100382.53;105661;1303;18873;-74
2021/12/30 09:02:51;;;;;;;;;133.67;94.67;;;;;20.52;49.16;100381.41;106271;1307;18824;-75
2021/12/30 09:05:19;;;;;;;;;143.67;111.33;;;;;18.95;46.06;100387.55;106334;1299;20661;-75
2021/12/30 09:07:47;;;;;;;;;155.25;122.00;;;;;18.11;45.83;100391.26;106370;1295;21051;-75
2021/12/30 09:10:14;;;;;;;;;129.00;107.00;;;;;17.97;45.48;100392.77;106263;1303;19174;-76
2021/12/30 09:12:43;;;;;;;;;169.25;123.75;;;;;18.42;44.95;100394.90;106284;1298;21454;-75
2021/12/30 09:15:11;;;;;;;;;140.33;105.33;;;;;18.69;44.52;100391.05;106346;1293;22811;-74
2021/12/30 09:17:38;;;;;;;;;114.33;90.00;;;;;18.91;43.92;100392.31;106376;1302;20614;-73
2021/12/30 09:20:06;;;;;;;;;115.67;85.67;;;;;19.38;43.19;100393.34;106437;1299;19009;-74
2021/12/30 09:22:34;;;;;;;;;111.00;78.00;;;;;19.74;43.28;100396.40;106459;1293;20581;-74
2021/12/30 09:25:05;;;;;;;;;106.33;77.33;;;;;19.99;43.40;100391.61;106357;1299;18607;-74
2021/12/30 09:27:32;;;;;;;;;97.00;72.00;;;;;20.18;43.46;100378.61;106428;1298;19816;-75
2021/12/30 09:30:00;;;;;;;;;94.00;69.00;;;;;20.33;43.74;100371.61;106422;1302;19836;-75
2021/12/30 09:32:27;;;;;;;;;98.67;71.33;;;;;20.47;43.86;100375.34;106379;1305;18283;-74
2021/12/30 09:34:55;;;;;;;;;92.33;67.00;;;;;20.56;44.46;100375.31;106331;1299;18564;-74
2021/12/30 09:37:22;;;;;;;;;88.50;64.50;;;;;20.61;44.46;100376.20;106235;1294;18818;-74
2021/12/30 09:39:49;;;;;;;;;85.67;62.67;;;;;20.63;44.50;100372.30;106372;1293;21767;-75
2021/12/30 09:42:18;;;;;;;;;82.00;60.00;;;;;20.71;44.33;100368.19;106347;1300;20662;-74
2021/12/30 09:44:46;;;;;;;;;88.00;62.00;;;;;20.76;44.43;100362.66;106392;1294;21600;-74
2021/12/30 09:47:13;;;;;;;;;80.33;57.00;;;;;20.77;44.48;100363.27;106458;1305;18241;-75
2021/12/30 09:49:40;;;;;;;;;82.33;58.00;;;;;20.76;44.74;100356.85;106406;1305;18710;-75
2021/12/30 09:52:08;;;;;;;;;76.00;58.33;;;;;20.71;44.80;100354.75;106421;1298;22912;-75
2021/12/30 09:54:35;;;;;;;;;68.33;54.33;;;;;20.69;45.11;100345.11;106384;1305;18287;-76
2021/12/30 09:57:02;;;;;;;;;72.00;56.00;;;;;20.71;45.26;100344.65;106400;1300;20932;-75
2021/12/30 09:59:31;;;;;;;;;68.50;53.50;;;;;20.74;45.64;100342.79;106185;1295;20128;-75
2021/12/30 10:01:59;;;;;;;;;72.00;53.00;;;;;20.72;45.81;100337.58;106376;1301;18259;-75
2021/12/30 10:04:27;;;;;;;;;68.00;51.00;;;;;20.70;45.86;100337.09;106699;1305;19358;-76
2021/12/30 10:06:54;;;;;;;;;70.67;54.00;;;;;20.81;46.22;100338.64;106511;1304;18884;-76
2021/12/30 10:09:29;;;;;;;;;69.00;49.33;;;;;20.91;46.19;100334.96;106499;1295;23291;-75
2021/12/30 10:11:57;;;;;;;;;69.00;51.00;;;;;20.90;45.57;100343.38;106371;1296;22212;-77
2021/12/30 10:14:24;;;;;;;;;61.00;46.67;;;;;20.84;45.63;100348.99;106644;1304;18968;-75
2021/12/30 10:16:51;;;;;;;;;63.67;48.33;;;;;20.80;45.88;100355.70;106658;1304;18379;-77
2021/12/30 10:19:19;;;;;;;;;63.00;47.00;;;;;20.83;46.30;100354.63;106625;1297;22891;-74
2021/12/30 10:21:46;;;;;;;;;65.67;51.67;;;;;20.84;46.50;100359.14;106864;1292;22042;-75
2021/12/30 10:24:13;;;;;;;;;57.67;45.00;;;;;20.83;46.44;100355.65;106760;1304;18971;-76
2021/12/30 10:26:41;;;;;;;;;60.67;47.67;;;;;20.83;46.49;100349.65;106751;1304;18882;-78
2021/12/30 10:29:08;;;;;;;;;64.50;45.50;;;;;20.84;46.63;100347.73;106753;1292;20689;-76
2021/12/30 10:31:36;;;;;;;;;47.67;42.00;;;;;20.87;46.60;100353.22;106650;1302;18317;-77
2021/12/30 10:34:04;;;;;;;;;51.00;44.00;;;;;20.83;47.10;100353.87;106628;1304;18625;-79
2021/12/30 10:36:31;;;;;;;;;51.00;40.67;;;;;20.82;47.15;100360.02;106651;1302;19061;-78
2021/12/30 10:38:58;;;;;;;;;56.00;40.00;;;;;20.84;47.04;100363.27;106695;1303;18275;-75
2021/12/30 10:41:26;;;;;;;;;49.33;40.00;;;;;20.83;46.19;100357.95;106690;1297;20446;-75
2021/12/30 10:43:53;;;;;;;;;45.33;40.00;;;;;20.81;45.90;100352.46;106809;1292;21990;-75
2021/12/30 10:46:20;;;;;;;;;45.67;37.33;;;;;20.76;46.17;100343.77;106773;1296;19013;-75
2021/12/30 10:48:48;;;;;;;;;46.50;40.00;;;;;20.75;46.35;100342.32;106732;1293;19257;-75
2021/12/30 10:51:15;;;;;;;;;45.00;40.33;;;;;20.72;46.44;100341.94;106730;1292;20425;-75
2021/12/30 10:53:42;;;;;;;;;49.00;38.00;;;;;20.70;46.22;100336.23;106657;1294;23676;-75
2021/12/30 10:56:10;;;;;;;;;47.33;37.67;;;;;20.69;46.42;100327.06;106723;1296;19030;-75
2021/12/30 10:58:37;;;;;;;;;39.00;38.00;;;;;20.67;46.38;100335.45;106758;1293;21391;-75